createdAt,value
2022-09-06T00:00:18.054Z,51.16
2022-09-06T00:02:46.227Z,51.66
2022-09-06T00:05:14.654Z,51.38
2022-09-06T00:07:42.369Z,51.28
2022-09-06T00:10:11.089Z,51.22
2022-09-06T00:12:38.864Z,51.83
2022-09-06T00:15:07.354Z,52.13
2022-09-06T00:17:35.032Z,52.55
2022-09-06T00:20:04.775Z,52.80
2022-09-06T00:22:32.289Z,52.57
2022-09-06T00:24:59.855Z,52.41
2022-09-06T00:27:28.522Z,52.78
2022-09-06T00:29:56.001Z,52.44
2022-09-06T00:32:23.785Z,51.74
2022-09-06T00:34:51.683Z,52.05
2022-09-06T00:37:19.273Z,52.09
2022-09-06T00:39:47.265Z,52.56
2022-09-06T00:42:15.084Z,52.56
2022-09-06T00:44:42.733Z,52.47
2022-09-06T00:47:10.450Z,52.31
2022-09-06T00:49:44.300Z,52.29
2022-09-06T00:52:15.355Z,52.72
2022-09-06T00:54:43.821Z,51.90
2022-09-06T00:57:12.138Z,52.32
2022-09-06T00:59:41.586Z,52.27
2022-09-06T01:02:10.100Z,52.45
2022-09-06T01:04:41.667Z,52.57
2022-09-06T01:07:34.105Z,52.85
2022-09-06T01:10:17.938Z,53.41
2022-09-06T01:13:08.819Z,53.44
2022-09-06T01:16:00.583Z,53.53
2022-09-06T01:18:34.119Z,53.60
2022-09-06T01:21:10.914Z,53.73
2022-09-06T01:24:04.464Z,53.55
2022-09-06T01:27:04.122Z,54.09
2022-09-06T01:30:12.795Z,54.15
2022-09-06T01:32:49.121Z,53.93
2022-09-06T01:35:22.482Z,54.31
2022-09-06T01:37:50.373Z,54.39
2022-09-06T01:40:18.173Z,54.44
2022-09-06T01:42:47.459Z,54.75
2022-09-06T01:45:19.007Z,54.54
2022-09-06T01:48:01.581Z,54.98
2022-09-06T01:50:53.778Z,55.17
2022-09-06T01:53:46.205Z,55.66
2022-09-06T01:56:45.751Z,55.30
2022-09-06T01:59:19.407Z,55.42
2022-09-06T02:02:11.632Z,55.56
2022-09-06T02:04:53.524Z,55.75
2022-09-06T02:07:26.218Z,55.82
2022-09-06T02:10:17.682Z,56.01
2022-09-06T02:12:48.399Z,56.02
2022-09-06T02:15:23.663Z,56.26
2022-09-06T02:18:01.430Z,56.13
2022-09-06T02:20:35.401Z,56.66
2022-09-06T02:23:06.375Z,56.73
2022-09-06T02:25:39.521Z,57.00
2022-09-06T02:28:09.168Z,56.70
2022-09-06T02:30:42.160Z,57.08
2022-09-06T02:33:15.221Z,56.89
2022-09-06T02:35:50.217Z,56.89
2022-09-06T02:38:21.036Z,56.97
2022-09-06T02:40:50.155Z,56.93
2022-09-06T02:43:17.580Z,57.00
2022-09-06T02:45:45.243Z,57.07
2022-09-06T02:48:13.046Z,57.06
2022-09-06T02:50:40.747Z,57.45
2022-09-06T02:53:11.466Z,57.79
2022-09-06T02:55:39.715Z,57.31
2022-09-06T02:58:11.414Z,57.33
2022-09-06T03:00:39.408Z,57.98
2022-09-06T03:03:07.478Z,58.00
2022-09-06T03:05:35.091Z,58.02
2022-09-06T03:08:03.378Z,57.66
2022-09-06T03:10:31.179Z,58.36
2022-09-06T03:12:59.201Z,58.25
2022-09-06T03:15:27.003Z,58.85
2022-09-06T03:17:58.757Z,58.40
2022-09-06T03:20:26.641Z,58.51
2022-09-06T03:22:54.339Z,58.50
2022-09-06T03:25:22.015Z,58.81
2022-09-06T03:27:49.867Z,58.89
2022-09-06T03:30:17.477Z,58.94
2022-09-06T03:32:45.290Z,59.11
2022-09-06T03:35:13.045Z,59.26
2022-09-06T03:37:41.109Z,59.58
2022-09-06T03:40:09.633Z,59.33
2022-09-06T03:42:37.526Z,59.44
2022-09-06T03:45:05.887Z,59.98
2022-09-06T03:47:33.699Z,59.76
2022-09-06T03:50:01.515Z,60.07
2022-09-06T03:52:29.433Z,60.37
2022-09-06T03:54:57.455Z,59.87
2022-09-06T03:57:25.034Z,60.25
2022-09-06T03:59:52.790Z,60.20
2022-09-06T04:02:21.000Z,60.31
2022-09-06T04:04:48.614Z,60.94
2022-09-06T04:07:16.193Z,60.66
2022-09-06T04:09:43.754Z,60.78
2022-09-06T04:12:11.484Z,61.29
2022-09-06T04:14:39.183Z,61.33
2022-09-06T04:17:07.036Z,61.59
2022-09-06T04:19:34.832Z,61.96
2022-09-06T04:22:02.497Z,61.42
2022-09-06T04:24:30.194Z,61.55
2022-09-06T04:27:00.052Z,61.96
2022-09-06T04:29:27.820Z,61.66
2022-09-06T04:31:55.600Z,61.60
2022-09-06T04:34:23.211Z,61.77
2022-09-06T04:36:50.743Z,61.61
2022-09-06T04:39:18.461Z,61.57
2022-09-06T04:41:46.037Z,61.38
2022-09-06T04:44:13.590Z,61.38
2022-09-06T04:46:42.505Z,61.36
2022-09-06T04:49:10.371Z,61.82
2022-09-06T04:51:39.608Z,61.13
2022-09-06T04:54:07.347Z,61.24
2022-09-06T04:56:34.963Z,61.38
2022-09-06T04:59:03.105Z,61.41
2022-09-06T05:01:30.763Z,61.49
2022-09-06T05:03:58.350Z,61.16
2022-09-06T05:06:26.196Z,61.31
2022-09-06T05:08:53.748Z,61.87
2022-09-06T05:11:21.490Z,62.29
2022-09-06T05:13:50.372Z,61.61
2022-09-06T05:16:18.327Z,61.14
2022-09-06T05:18:46.232Z,60.23
2022-09-06T05:21:14.324Z,60.93
2022-09-06T05:23:42.222Z,60.15
2022-09-06T05:26:09.837Z,59.70
2022-09-06T05:28:37.476Z,58.56
2022-09-06T05:31:12.307Z,58.62
2022-09-06T05:33:40.224Z,57.69
2022-09-06T05:36:08.262Z,58.09
2022-09-06T05:38:35.777Z,56.75
2022-09-06T05:41:03.297Z,55.67
2022-09-06T05:43:31.082Z,55.01
2022-09-06T05:45:59.415Z,54.24
2022-09-06T05:48:27.348Z,53.96
2022-09-06T05:51:12.874Z,53.31
2022-09-06T05:53:43.344Z,52.77
2022-09-06T05:56:12.755Z,52.23
2022-09-06T05:58:40.920Z,51.34
2022-09-06T06:01:14.409Z,50.97
2022-09-06T06:03:43.338Z,50.62
2022-09-06T06:06:11.212Z,50.09
2022-09-06T06:08:39.880Z,49.10
2022-09-06T06:11:07.596Z,48.55
2022-09-06T06:13:39.508Z,48.21
2022-09-06T06:16:08.531Z,48.28
2022-09-06T06:18:36.782Z,47.56
2022-09-06T06:21:13.486Z,47.19
2022-09-06T06:23:42.621Z,47.05
2022-09-06T06:26:11.876Z,47.34
2022-09-06T06:28:40.401Z,46.90
2022-09-06T06:31:10.122Z,45.62
2022-09-06T06:33:38.858Z,44.95
2022-09-06T06:36:12.305Z,44.59
2022-09-06T06:38:42.201Z,44.82
2022-09-06T06:41:12.478Z,43.94
2022-09-06T06:43:40.573Z,42.79
2022-09-06T06:46:12.275Z,42.49
2022-09-06T06:48:43.434Z,42.01
2022-09-06T06:51:13.854Z,40.62
2022-09-06T06:53:41.722Z,38.68
2022-09-06T06:56:31.224Z,37.64
2022-09-06T06:59:01.355Z,35.39
2022-09-06T07:01:31.565Z,36.41
2022-09-06T07:03:59.696Z,35.68
2022-09-06T07:09:20.114Z,34.51
2022-09-06T07:11:49.069Z,33.62
2022-09-06T07:14:19.700Z,34.66
2022-09-06T07:16:47.642Z,35.77
2022-09-06T07:22:05.327Z,33.28
2022-09-06T07:24:33.484Z,32.76
2022-09-06T07:29:48.652Z,33.30
2022-09-06T07:32:16.494Z,34.61
2022-09-06T07:34:44.171Z,35.33
2022-09-06T07:37:11.806Z,34.54
2022-09-06T07:39:40.025Z,33.99
2022-09-06T07:42:08.238Z,34.89
2022-09-06T07:44:36.008Z,33.05
2022-09-06T07:55:29.838Z,34.00
2022-09-06T07:57:57.439Z,33.28
2022-09-06T08:00:25.388Z,33.39
2022-09-06T08:02:53.098Z,34.95
2022-09-06T08:10:56.230Z,35.31
2022-09-06T08:13:24.036Z,34.16
2022-09-06T08:16:06.271Z,33.88
2022-09-06T08:18:35.266Z,34.53
2022-09-06T08:21:12.164Z,33.70
2022-09-06T08:23:49.094Z,33.93
2022-09-06T08:26:18.052Z,34.73
2022-09-06T08:28:45.679Z,35.66
2022-09-06T08:31:17.756Z,36.19
2022-09-06T08:33:47.676Z,37.24
2022-09-06T08:36:15.794Z,37.55
2022-09-06T08:38:43.404Z,38.32
2022-09-06T08:41:16.851Z,39.67
2022-09-06T08:47:04.438Z,39.20
2022-09-06T08:49:56.866Z,40.05
2022-09-06T08:52:29.202Z,40.93
2022-09-06T08:55:21.309Z,41.01
2022-09-06T08:58:01.404Z,41.33
2022-09-06T09:00:30.329Z,41.95
2022-09-06T09:03:09.071Z,42.80
2022-09-06T09:05:41.169Z,42.48
2022-09-06T09:08:16.429Z,43.40
2022-09-06T09:11:03.976Z,43.20
2022-09-06T09:13:49.225Z,43.64
2022-09-06T09:16:17.756Z,44.02
2022-09-06T09:18:52.502Z,44.38
2022-09-06T09:21:26.820Z,44.84
2022-09-06T09:24:02.048Z,45.14
2022-09-06T09:26:36.992Z,44.57
2022-09-06T09:29:10.757Z,44.61
2022-09-06T09:31:51.344Z,44.65
2022-09-06T09:34:35.263Z,44.91
2022-09-06T09:40:07.339Z,45.56
2022-09-06T09:42:37.519Z,45.20
2022-09-06T09:45:20.186Z,44.85
2022-09-06T09:47:47.748Z,45.37
2022-09-06T09:50:34.737Z,45.70
2022-09-06T09:53:15.080Z,44.12
2022-09-06T09:55:44.268Z,43.42
2022-09-06T09:58:33.528Z,41.72
2022-09-06T10:01:29.316Z,42.11
2022-09-06T10:07:16.341Z,43.74
2022-09-06T10:09:47.803Z,44.08
2022-09-06T10:12:33.014Z,43.55
2022-09-06T10:15:03.630Z,44.41
2022-09-06T10:17:38.602Z,45.39
2022-09-06T10:20:12.894Z,45.94
2022-09-06T10:22:55.696Z,45.15
2022-09-06T10:26:01.856Z,45.06
2022-09-06T10:28:29.693Z,45.71
2022-09-06T10:31:29.189Z,46.29
2022-09-06T10:34:09.608Z,45.87
2022-09-06T10:36:58.006Z,46.08
2022-09-06T10:39:46.423Z,45.88
2022-09-06T10:42:37.784Z,46.01
2022-09-06T10:45:14.403Z,45.99
2022-09-06T10:48:14.472Z,46.00
2022-09-06T10:51:00.757Z,45.71
2022-09-06T10:54:02.765Z,44.09
2022-09-06T10:56:41.505Z,44.55
2022-09-06T11:02:23.924Z,44.10
2022-09-06T11:10:40.413Z,46.30
2022-09-06T11:13:18.634Z,46.61
2022-09-06T11:15:48.842Z,46.50
2022-09-06T11:18:25.203Z,46.20
2022-09-06T11:21:19.335Z,47.27
2022-09-06T11:24:06.531Z,47.52
2022-09-06T11:26:44.522Z,47.89
2022-09-06T11:29:22.413Z,47.81
2022-09-06T11:32:18.114Z,47.58
2022-09-06T11:34:58.801Z,48.48
2022-09-06T11:37:32.979Z,48.69
2022-09-06T11:42:50.825Z,49.81
2022-09-06T11:45:39.392Z,49.88
2022-09-06T11:48:34.136Z,49.47
2022-09-06T11:51:11.293Z,49.50
2022-09-06T11:53:51.051Z,50.63
2022-09-06T11:56:30.341Z,51.26
2022-09-06T11:59:03.873Z,51.11
2022-09-06T12:01:31.386Z,50.73
2022-09-06T12:04:07.217Z,50.81
2022-09-06T12:06:38.995Z,49.95
2022-09-06T12:09:36.436Z,49.69
2022-09-06T12:12:04.605Z,49.29
2022-09-06T12:14:40.990Z,50.18
2022-09-06T12:17:09.122Z,50.29
2022-09-06T12:19:45.744Z,50.37
2022-09-06T12:22:32.843Z,50.55
2022-09-06T12:25:22.205Z,51.46
2022-09-06T12:27:57.001Z,52.00
2022-09-06T12:30:45.782Z,52.55
2022-09-06T12:33:36.386Z,52.67
2022-09-06T12:36:33.439Z,53.31
2022-09-06T12:39:09.885Z,53.74
2022-09-06T12:41:43.548Z,53.69
2022-09-06T12:44:14.550Z,54.39
2022-09-06T12:46:50.885Z,54.30
2022-09-06T12:49:21.345Z,53.98
2022-09-06T12:51:49.991Z,54.48
2022-09-06T12:54:25.227Z,54.79
2022-09-06T12:56:53.918Z,54.33
2022-09-06T12:59:24.622Z,53.92
2022-09-06T13:02:00.841Z,53.56
2022-09-06T13:05:03.429Z,53.51
2022-09-06T13:07:32.893Z,53.82
2022-09-06T13:10:00.743Z,53.64
2022-09-06T13:12:35.263Z,53.98
2022-09-06T13:15:17.439Z,54.32
2022-09-06T13:17:45.373Z,54.01
2022-09-06T13:20:26.120Z,53.77
2022-09-06T13:23:05.078Z,53.19
2022-09-06T13:25:33.544Z,52.78
2022-09-06T13:28:02.407Z,52.92
2022-09-06T13:30:34.772Z,52.68
2022-09-06T13:33:04.741Z,52.72
2022-09-06T13:35:36.077Z,52.65
2022-09-06T13:38:33.022Z,53.83
2022-09-06T13:41:16.903Z,53.99
2022-09-06T13:43:47.744Z,53.44
2022-09-06T13:46:16.232Z,53.73
2022-09-06T13:48:44.992Z,54.05
2022-09-06T13:51:13.019Z,53.87
2022-09-06T13:53:40.508Z,54.17
2022-09-06T13:56:08.877Z,54.23
2022-09-06T13:58:37.100Z,54.61
2022-09-06T14:01:10.112Z,54.35
2022-09-06T14:03:40.944Z,54.32
2022-09-06T14:06:10.189Z,54.17
2022-09-06T14:09:03.413Z,54.10
2022-09-06T14:11:27.002Z,54.65
2022-09-06T14:13:55.127Z,54.69
2022-09-06T14:16:22.822Z,54.89
2022-09-06T14:18:52.024Z,55.12
2022-09-06T14:21:19.918Z,55.68
2022-09-06T14:23:51.479Z,55.94
2022-09-06T14:26:23.203Z,56.32
2022-09-06T14:28:51.154Z,57.18
2022-09-06T14:31:21.820Z,57.15
2022-09-06T14:33:50.772Z,57.56
2022-09-06T14:36:21.042Z,57.58
2022-09-06T14:38:49.997Z,58.42
2022-09-06T14:41:18.958Z,58.98
2022-09-06T14:43:50.378Z,59.67
2022-09-06T14:46:19.362Z,59.31
2022-09-06T14:48:47.014Z,59.55
2022-09-06T14:51:20.807Z,59.82
2022-09-06T14:53:50.904Z,60.21
2022-09-06T14:56:19.410Z,60.30
2022-09-06T14:58:47.682Z,59.76
2022-09-06T15:01:25.706Z,59.92
2022-09-06T15:03:59.368Z,59.96
2022-09-06T15:06:27.757Z,60.45
2022-09-06T15:08:59.299Z,60.86
2022-09-06T15:11:34.703Z,61.39
2022-09-06T15:14:04.381Z,61.56
2022-09-06T15:16:32.972Z,62.06
2022-09-06T15:19:02.834Z,62.84
2022-09-06T15:21:31.726Z,62.88
2022-09-06T15:24:00.421Z,63.49
2022-09-06T15:26:28.392Z,64.14
2022-09-06T15:28:56.125Z,65.10
2022-09-06T15:31:24.000Z,65.47
2022-09-06T15:33:52.938Z,65.94
2022-09-06T15:36:21.947Z,66.30
2022-09-06T15:38:50.869Z,66.43
2022-09-06T15:41:27.272Z,66.59
2022-09-06T15:43:57.876Z,66.67
2022-09-06T15:46:34.636Z,66.98
2022-09-06T15:49:06.466Z,67.25
2022-09-06T15:51:35.686Z,68.02
2022-09-06T15:54:04.324Z,68.13
2022-09-06T15:56:32.503Z,68.40
2022-09-06T15:59:00.074Z,68.92
2022-09-06T16:01:28.194Z,69.20
2022-09-06T16:04:03.851Z,69.43
2022-09-06T16:06:38.235Z,69.62
2022-09-06T16:09:08.852Z,69.88
2022-09-06T16:11:37.582Z,70.42
2022-09-06T16:14:07.216Z,70.65
2022-09-06T16:16:35.940Z,70.63
2022-09-06T16:19:03.656Z,70.59
2022-09-06T16:21:33.325Z,70.77
2022-09-06T16:24:06.955Z,70.61
2022-09-06T16:26:40.960Z,70.83
2022-09-06T16:29:10.240Z,71.11
2022-09-06T16:31:40.524Z,71.54
2022-09-06T16:34:09.865Z,71.66
2022-09-06T16:36:37.691Z,71.81
2022-09-06T16:39:06.404Z,72.55
2022-09-06T16:41:42.959Z,73.00
2022-09-06T16:44:16.941Z,73.02
2022-09-06T16:46:46.989Z,73.06
2022-09-06T16:49:17.175Z,73.24
2022-09-06T16:51:46.295Z,73.43
2022-09-06T16:54:15.468Z,73.42
2022-09-06T16:56:43.373Z,73.66
2022-09-06T16:59:12.012Z,74.18
2022-09-06T17:01:44.629Z,74.58
2022-09-06T17:04:15.624Z,74.71
2022-09-06T17:06:46.941Z,74.93
2022-09-06T17:09:17.791Z,75.08
2022-09-06T17:11:46.478Z,75.15
2022-09-06T17:14:14.222Z,75.80
2022-09-06T17:17:00.568Z,75.67
2022-09-06T17:19:29.741Z,75.88
2022-09-06T17:21:58.175Z,75.84
2022-09-06T17:24:27.010Z,76.04
2022-09-06T17:26:55.006Z,76.04
2022-09-06T17:29:24.450Z,76.08
2022-09-06T17:31:52.553Z,76.39
2022-09-06T17:34:20.457Z,76.89
2022-09-06T17:36:48.014Z,76.82
2022-09-06T17:39:18.336Z,76.79
2022-09-06T17:41:52.316Z,76.63
2022-09-06T17:44:23.470Z,76.25
2022-09-06T17:47:11.335Z,76.04
2022-09-06T17:49:39.520Z,75.77
2022-09-06T17:52:07.448Z,74.71
2022-09-06T17:54:35.207Z,74.82
2022-09-06T17:57:02.806Z,74.35
2022-09-06T17:59:35.090Z,73.71
2022-09-06T18:02:04.905Z,73.28
2022-09-06T18:04:33.222Z,72.94
2022-09-06T18:07:01.160Z,72.84
2022-09-06T18:09:29.056Z,72.22
2022-09-06T18:11:57.103Z,72.03
2022-09-06T18:14:24.932Z,72.30
2022-09-06T18:16:52.781Z,72.11
2022-09-06T18:19:22.247Z,72.00
2022-09-06T18:21:50.298Z,72.14
2022-09-06T18:24:18.471Z,72.21
2022-09-06T18:26:46.464Z,72.06
2022-09-06T18:29:16.834Z,71.62
2022-09-06T18:31:45.000Z,71.30
2022-09-06T18:34:12.820Z,71.40
2022-09-06T18:36:40.618Z,70.85
2022-09-06T18:39:08.727Z,70.39
2022-09-06T18:41:55.065Z,69.55
2022-09-06T18:44:23.152Z,69.50
2022-09-06T18:46:55.751Z,68.76
2022-09-06T18:49:24.076Z,68.72
2022-09-06T18:51:52.003Z,68.41
2022-09-06T18:54:20.611Z,68.17
2022-09-06T18:56:50.083Z,67.33
2022-09-06T18:59:18.378Z,66.77
2022-09-06T19:01:46.622Z,66.45
2022-09-06T19:04:14.720Z,65.96
2022-09-06T19:06:43.772Z,65.66
2022-09-06T19:09:14.694Z,65.81
2022-09-06T19:11:45.561Z,64.84
2022-09-06T19:14:15.189Z,64.67
2022-09-06T19:16:43.054Z,64.06
2022-09-06T19:19:11.960Z,64.28
2022-09-06T19:21:42.320Z,64.15
2022-09-06T19:24:15.648Z,63.75
2022-09-06T19:26:44.355Z,63.23
2022-09-06T19:29:15.863Z,63.22
2022-09-06T19:31:44.758Z,62.93
2022-09-06T19:34:15.594Z,62.35
2022-09-06T19:36:44.702Z,62.32
2022-09-06T19:39:15.158Z,61.94
2022-09-06T19:41:45.180Z,62.63
2022-09-06T19:44:17.013Z,62.67
2022-09-06T19:46:46.991Z,62.83
2022-09-06T19:49:19.532Z,63.34
2022-09-06T19:51:48.997Z,63.79
2022-09-06T19:54:17.694Z,64.35
2022-09-06T19:56:49.426Z,64.36
2022-09-06T19:59:17.815Z,64.89
2022-09-06T20:01:46.464Z,64.99
2022-09-06T20:04:15.786Z,65.12
2022-09-06T20:06:43.697Z,65.36
2022-09-06T20:09:12.385Z,65.56
2022-09-06T20:11:41.342Z,65.70
2022-09-06T20:14:09.964Z,65.89
2022-09-06T20:16:41.471Z,65.83
2022-09-06T20:19:12.169Z,65.67
2022-09-06T20:21:40.401Z,65.71
2022-09-06T20:24:08.540Z,65.41
2022-09-06T20:26:36.408Z,65.98
2022-09-06T20:29:05.111Z,65.54
2022-09-06T20:31:35.167Z,65.85
2022-09-06T20:34:05.212Z,65.68
2022-09-06T20:36:33.238Z,65.63
2022-09-06T20:39:02.226Z,65.60
2022-09-06T20:41:31.024Z,65.66
2022-09-06T20:43:59.677Z,65.92
2022-09-06T20:46:29.954Z,66.12
2022-09-06T20:49:01.720Z,65.93
2022-09-06T20:51:29.680Z,66.45
2022-09-06T20:53:59.316Z,66.77
2022-09-06T20:56:29.719Z,66.92
2022-09-06T20:59:00.797Z,66.83
2022-09-06T21:01:31.107Z,66.80
2022-09-06T21:04:00.412Z,66.92
2022-09-06T21:06:30.714Z,66.98
2022-09-06T21:08:58.490Z,67.14
2022-09-06T21:11:26.192Z,67.29
2022-09-06T21:13:56.573Z,67.16
2022-09-06T21:16:29.086Z,66.98
2022-09-06T21:19:03.166Z,66.86
2022-09-06T21:21:33.082Z,66.83
2022-09-06T21:24:02.325Z,66.66
2022-09-06T21:26:30.541Z,66.80
2022-09-06T21:28:58.525Z,66.48
2022-09-06T21:31:31.313Z,66.47
2022-09-06T21:34:03.274Z,66.52
2022-09-06T21:36:34.065Z,66.92
2022-09-06T21:39:04.999Z,66.79
2022-09-06T21:41:35.103Z,67.81
2022-09-06T21:44:04.175Z,67.66
2022-09-06T21:46:34.686Z,67.46
2022-09-06T21:49:05.336Z,66.96
2022-09-06T21:51:33.323Z,67.02
2022-09-06T21:54:05.479Z,66.94
2022-09-06T21:56:38.153Z,66.74
2022-09-06T21:59:07.119Z,66.90
2022-09-06T22:01:36.796Z,66.40
2022-09-06T22:04:06.114Z,66.73
2022-09-06T22:06:35.463Z,67.01
2022-09-06T22:09:10.651Z,66.72
2022-09-06T22:11:39.686Z,67.28
2022-09-06T22:14:10.056Z,67.35
2022-09-06T22:16:39.654Z,67.50
2022-09-06T22:19:09.340Z,67.65
2022-09-06T22:21:38.798Z,67.68
2022-09-06T22:24:09.327Z,67.33
2022-09-06T22:26:38.657Z,66.60
2022-09-06T22:29:08.050Z,66.47
2022-09-06T22:31:36.553Z,65.92
2022-09-06T22:34:05.125Z,66.00
2022-09-06T22:36:33.749Z,66.23
2022-09-06T22:39:01.262Z,66.58
2022-09-06T22:41:31.359Z,67.01
2022-09-06T22:44:02.877Z,67.67
2022-09-06T22:46:31.081Z,68.13
2022-09-06T22:48:59.691Z,68.10
2022-09-06T22:51:27.483Z,69.00
2022-09-06T22:53:55.357Z,69.39
2022-09-06T22:56:22.864Z,69.50
2022-09-06T22:58:50.431Z,69.57
2022-09-06T23:01:18.144Z,69.66
2022-09-06T23:03:46.533Z,69.88
2022-09-06T23:06:14.018Z,69.93
2022-09-06T23:08:42.313Z,69.76
2022-09-06T23:11:12.866Z,69.63
2022-09-06T23:13:43.880Z,69.69
2022-09-06T23:16:17.861Z,69.84
2022-09-06T23:18:45.902Z,70.46
2022-09-06T23:21:17.120Z,70.83
2022-09-06T23:23:45.743Z,70.64
2022-09-06T23:26:19.277Z,69.83
2022-09-06T23:28:47.499Z,68.86
2022-09-06T23:31:15.752Z,68.06
2022-09-06T23:33:44.162Z,67.70
2022-09-06T23:36:14.658Z,66.91
2022-09-06T23:38:43.646Z,66.79
2022-09-06T23:41:11.371Z,65.79
2022-09-06T23:43:40.735Z,65.52
2022-09-06T23:46:12.913Z,65.03
2022-09-06T23:48:40.771Z,64.85
2022-09-06T23:51:08.460Z,64.74
2022-09-06T23:53:36.464Z,64.67
2022-09-06T23:56:05.112Z,64.64
2022-09-06T23:58:33.206Z,64.44
